Terminal Aerodrome Forecast
Issued by NWS Wichita, KS

Home | Current Version | Previous Version | Graphics & Text | Print | Product List | Glossary On
Versions: 1 2 3 4 5 6 7 8 9 10 11 12 13 14 15 16 17 18
000
FTUS43 KICT 170900 AAB
TAFICT
TAF AMD
KICT 170908Z 1709/1806 18006KT 5SM BR SCT010 BKN030
      TEMPO 1709/1713 3SM BR BKN008
     FM171500 20010KT P6SM SCT040
      TEMPO 1715/1718 BKN025
     FM172300 16008KT P6SM SCT035=

USA.gov is the U.S. government's official web portal to all federal, state and local government web resources and services.